createdAt,value
2017-10-18T00:02:24.720Z,30.77
2017-10-18T00:04:52.118Z,31.60
2017-10-18T00:07:19.514Z,32.57
2017-10-18T00:09:46.902Z,36.90
2017-10-18T00:12:14.305Z,35.43
2017-10-18T00:14:41.705Z,32.70
2017-10-18T00:17:09.106Z,36.60
2017-10-18T00:19:36.561Z,37.87
2017-10-18T00:22:03.982Z,36.30
2017-10-18T00:24:31.365Z,32.40
2017-10-18T00:26:58.802Z,32.93
2017-10-18T00:29:26.194Z,32.40
2017-10-18T00:31:53.589Z,32.90
2017-10-18T00:34:20.999Z,30.90
2017-10-18T00:36:48.410Z,29.50
2017-10-18T00:39:15.797Z,31.33
2017-10-18T00:41:43.205Z,32.57
2017-10-18T00:44:10.613Z,34.60
2017-10-18T00:46:38.018Z,33.50
2017-10-18T00:49:05.410Z,30.43
2017-10-18T00:51:32.802Z,32.47
2017-10-18T00:54:00.197Z,33.13
2017-10-18T00:56:27.606Z,31.77
2017-10-18T00:58:54.997Z,29.10
2017-10-18T01:01:22.385Z,34.20
2017-10-18T01:03:49.805Z,33.10
2017-10-18T01:06:17.211Z,31.83
2017-10-18T01:08:44.605Z,32.37
2017-10-18T01:11:12.007Z,36.30
2017-10-18T01:13:39.409Z,41.10
2017-10-18T01:16:06.826Z,38.27
2017-10-18T01:18:34.245Z,37.07
2017-10-18T01:21:01.624Z,40.77
2017-10-18T01:23:29.018Z,35.83
2017-10-18T01:25:56.443Z,34.80
2017-10-18T01:28:23.842Z,36.43
2017-10-18T01:30:51.238Z,37.00
2017-10-18T01:33:18.643Z,37.50
2017-10-18T01:35:46.065Z,38.27
2017-10-18T01:38:13.451Z,36.70
2017-10-18T01:40:40.854Z,37.67
2017-10-18T01:43:08.254Z,39.70
2017-10-18T01:45:35.650Z,39.60
2017-10-18T01:48:03.062Z,36.50
2017-10-18T01:50:30.450Z,40.27
2017-10-18T01:52:57.850Z,36.70
2017-10-18T01:55:25.258Z,37.93
2017-10-18T01:57:52.653Z,37.97
2017-10-18T02:00:20.049Z,32.13
2017-10-18T02:02:47.494Z,31.47
2017-10-18T02:05:14.898Z,33.00
2017-10-18T02:07:42.318Z,34.80
2017-10-18T02:10:09.730Z,34.97
2017-10-18T02:12:37.113Z,36.17
2017-10-18T02:15:04.534Z,35.93
2017-10-18T02:17:31.966Z,34.80
2017-10-18T02:19:59.362Z,34.30
2017-10-18T02:22:26.754Z,34.33
2017-10-18T02:24:54.162Z,36.80
2017-10-18T02:27:21.553Z,33.07
2017-10-18T02:29:48.966Z,37.23
2017-10-18T02:32:16.370Z,37.43
2017-10-18T02:34:43.766Z,36.50
2017-10-18T02:37:11.165Z,35.17
2017-10-18T02:39:38.586Z,36.07
2017-10-18T02:42:06.009Z,35.83
2017-10-18T02:44:33.434Z,35.10
2017-10-18T02:47:00.842Z,34.47
2017-10-18T02:49:28.238Z,35.03
2017-10-18T02:51:55.632Z,32.33
2017-10-18T02:54:23.041Z,34.73
2017-10-18T02:56:50.432Z,33.17
2017-10-18T02:59:17.829Z,34.00
2017-10-18T03:01:45.244Z,34.60
2017-10-18T03:04:12.641Z,33.83
2017-10-18T03:06:40.030Z,35.30
2017-10-18T03:09:07.442Z,34.27
2017-10-18T03:11:34.857Z,35.13
2017-10-18T03:14:02.266Z,34.13
2017-10-18T03:16:29.691Z,34.50
2017-10-18T03:18:57.126Z,35.33
2017-10-18T03:21:24.509Z,35.50
2017-10-18T03:23:51.910Z,36.50
2017-10-18T03:26:19.312Z,33.63
2017-10-18T03:28:46.701Z,34.40
2017-10-18T03:31:14.107Z,32.93
2017-10-18T03:33:41.505Z,34.10
2017-10-18T03:36:08.913Z,35.10
2017-10-18T03:38:36.328Z,33.57
2017-10-18T03:41:03.718Z,33.80
2017-10-18T03:43:31.105Z,32.67
2017-10-18T03:45:58.525Z,32.57
2017-10-18T03:48:25.918Z,34.37
2017-10-18T03:50:53.309Z,33.40
2017-10-18T03:53:20.709Z,33.43
2017-10-18T03:55:48.122Z,34.40
2017-10-18T03:58:15.522Z,32.73
2017-10-18T04:00:42.929Z,34.63
2017-10-18T04:03:10.327Z,32.17
2017-10-18T04:05:37.731Z,31.30
2017-10-18T04:08:05.130Z,32.27
2017-10-18T04:10:32.528Z,33.13
2017-10-18T04:12:59.914Z,31.63
2017-10-18T04:15:27.330Z,34.43
2017-10-18T04:17:54.725Z,33.20
2017-10-18T04:20:22.122Z,35.40
2017-10-18T04:22:49.525Z,36.17
2017-10-18T04:25:16.922Z,35.90
2017-10-18T04:27:44.314Z,35.10
2017-10-18T04:30:11.718Z,35.90
2017-10-18T04:32:39.118Z,32.87
2017-10-18T04:35:06.526Z,31.07
2017-10-18T04:37:33.934Z,32.50
2017-10-18T04:40:01.321Z,32.23
2017-10-18T04:42:28.710Z,32.67
2017-10-18T04:44:56.117Z,32.30
2017-10-18T04:47:23.522Z,30.70
2017-10-18T04:49:50.927Z,29.60
2017-10-18T04:52:18.333Z,31.47
2017-10-18T04:54:45.725Z,30.20
2017-10-18T04:57:13.114Z,32.57
2017-10-18T04:59:40.536Z,31.87
2017-10-18T05:02:07.922Z,31.33
2017-10-18T05:04:35.332Z,31.40
2017-10-18T05:07:02.743Z,31.20
2017-10-18T05:09:30.133Z,30.70
2017-10-18T05:11:57.525Z,29.60
2017-10-18T05:14:25.378Z,32.40
2017-10-18T05:16:52.783Z,33.43
2017-10-18T05:19:20.200Z,31.27
2017-10-18T05:21:47.607Z,31.17
2017-10-18T05:24:15.013Z,31.30
2017-10-18T05:26:42.406Z,30.57
2017-10-18T05:29:10.676Z,29.97
2017-10-18T05:31:38.047Z,30.10
2017-10-18T05:34:05.461Z,29.27
2017-10-18T05:36:32.936Z,31.47
2017-10-18T05:39:00.317Z,33.03
2017-10-18T05:41:27.718Z,30.87
2017-10-18T05:43:55.147Z,32.73
2017-10-18T05:46:22.567Z,32.80
2017-10-18T05:48:49.975Z,29.67
2017-10-18T05:51:17.367Z,28.03
2017-10-18T05:53:44.758Z,29.67
2017-10-18T05:56:12.150Z,27.33
2017-10-18T05:58:39.566Z,28.20
2017-10-18T06:01:06.981Z,27.60
2017-10-18T06:03:34.431Z,27.90
2017-10-18T06:06:01.830Z,29.10
2017-10-18T06:08:29.254Z,27.40
2017-10-18T06:10:56.662Z,27.70
2017-10-18T06:13:24.057Z,28.83
2017-10-18T06:15:51.486Z,31.07
2017-10-18T06:18:18.881Z,30.93
2017-10-18T06:20:46.326Z,29.57
2017-10-18T06:23:13.701Z,31.10
2017-10-18T06:25:41.122Z,29.40
2017-10-18T06:28:08.532Z,29.30
2017-10-18T06:30:35.929Z,28.93
2017-10-18T06:33:03.348Z,29.20
2017-10-18T06:35:30.757Z,28.40
2017-10-18T06:37:58.875Z,27.87
2017-10-18T06:40:26.259Z,30.13
2017-10-18T06:42:53.682Z,27.97
2017-10-18T06:45:21.069Z,27.90
2017-10-18T06:47:48.457Z,28.07
2017-10-18T06:50:15.866Z,28.23
2017-10-18T06:52:43.261Z,28.97
2017-10-18T06:55:10.650Z,29.10
2017-10-18T06:57:38.135Z,26.90
2017-10-18T07:00:05.526Z,27.93
2017-10-18T07:02:32.941Z,25.93
2017-10-18T07:05:00.387Z,26.67
2017-10-18T07:07:27.815Z,27.67
2017-10-18T07:09:55.283Z,28.73
2017-10-18T07:12:22.687Z,26.73
2017-10-18T07:14:50.084Z,27.10
2017-10-18T07:17:17.506Z,29.23
2017-10-18T07:19:44.953Z,29.03
2017-10-18T07:22:12.413Z,27.70
2017-10-18T07:24:39.789Z,27.17
2017-10-18T07:27:07.204Z,27.23
2017-10-18T07:29:34.630Z,26.70
2017-10-18T07:32:02.036Z,27.97
2017-10-18T07:34:29.482Z,28.37
2017-10-18T07:36:56.898Z,27.07
2017-10-18T07:39:24.293Z,27.00
2017-10-18T07:41:51.717Z,27.57
2017-10-18T07:44:19.150Z,26.40
2017-10-18T07:46:46.546Z,25.70
2017-10-18T07:49:13.954Z,25.30
2017-10-18T07:51:41.366Z,26.10
2017-10-18T07:54:09.070Z,26.00
2017-10-18T07:56:36.553Z,26.37
2017-10-18T07:59:03.994Z,25.93
2017-10-18T08:01:31.394Z,24.20
2017-10-18T08:03:58.816Z,25.57
2017-10-18T08:06:26.203Z,24.07
2017-10-18T08:08:53.629Z,23.37
2017-10-18T08:11:21.078Z,22.60
2017-10-18T08:13:48.466Z,22.13
2017-10-18T08:16:15.868Z,21.63
2017-10-18T08:18:43.298Z,21.60
2017-10-18T08:21:10.725Z,21.67
2017-10-18T08:23:38.106Z,22.90
2017-10-18T08:26:05.514Z,20.60
2017-10-18T08:28:32.930Z,19.93
2017-10-18T08:31:00.354Z,19.40
2017-10-18T08:33:27.780Z,18.60
2017-10-18T08:35:55.200Z,18.43
2017-10-18T08:38:22.598Z,18.47
2017-10-18T08:40:50.029Z,18.00
2017-10-18T08:43:17.417Z,17.50
2017-10-18T08:45:44.838Z,17.87
2017-10-18T08:48:12.262Z,18.30
2017-10-18T08:50:39.713Z,17.90
2017-10-18T08:53:07.128Z,19.17
2017-10-18T08:55:34.610Z,17.47
2017-10-18T08:58:02.014Z,18.40
2017-10-18T09:00:29.457Z,17.60
2017-10-18T09:02:56.863Z,18.10
2017-10-18T09:05:24.307Z,18.10
2017-10-18T09:07:51.739Z,17.70
2017-10-18T09:10:19.193Z,16.57
2017-10-18T09:12:46.611Z,17.17
2017-10-18T09:15:14.055Z,16.07
2017-10-18T09:17:41.467Z,17.13
2017-10-18T09:20:08.860Z,16.33
2017-10-18T09:22:36.290Z,17.50
2017-10-18T09:25:03.710Z,17.17
2017-10-18T09:27:31.099Z,17.00
2017-10-18T09:29:58.505Z,16.90
2017-10-18T09:32:25.940Z,18.13
2017-10-18T09:34:53.377Z,18.47
2017-10-18T09:37:20.787Z,18.30
2017-10-18T09:39:48.189Z,16.50
2017-10-18T09:42:15.610Z,16.40
2017-10-18T09:44:42.997Z,16.70
2017-10-18T09:47:10.425Z,15.90
2017-10-18T09:49:37.821Z,15.10
2017-10-18T09:52:05.217Z,15.17
2017-10-18T09:54:32.622Z,15.13
2017-10-18T09:57:00.051Z,15.60
2017-10-18T09:59:27.419Z,16.10
2017-10-18T10:01:54.822Z,14.53
2017-10-18T10:04:22.220Z,15.67
2017-10-18T10:06:49.606Z,14.70
2017-10-18T10:09:17.006Z,15.10
2017-10-18T10:11:44.402Z,14.03
2017-10-18T10:14:11.798Z,13.60
2017-10-18T10:16:39.204Z,13.43
2017-10-18T10:19:06.595Z,14.00
2017-10-18T10:21:33.987Z,14.80
2017-10-18T10:24:01.386Z,13.50
2017-10-18T10:26:28.778Z,14.33
2017-10-18T10:28:56.166Z,13.80
2017-10-18T10:31:23.578Z,15.37
2017-10-18T10:33:50.978Z,14.23
2017-10-18T10:36:18.378Z,14.20
2017-10-18T10:38:45.783Z,14.37
2017-10-18T10:41:13.169Z,14.60
2017-10-18T10:43:40.587Z,14.60
2017-10-18T10:46:08.009Z,14.30
2017-10-18T10:48:35.393Z,13.57
2017-10-18T10:51:02.827Z,13.03
2017-10-18T10:53:30.225Z,13.17
2017-10-18T10:55:57.618Z,12.63
2017-10-18T10:58:25.011Z,11.70
2017-10-18T11:00:52.415Z,13.30
2017-10-18T11:03:19.802Z,12.53
2017-10-18T11:05:47.190Z,13.07
2017-10-18T11:08:14.599Z,13.60
2017-10-18T11:10:41.995Z,12.80
2017-10-18T11:13:09.378Z,12.60
2017-10-18T11:15:36.784Z,14.50
2017-10-18T11:18:04.170Z,12.63
2017-10-18T11:20:31.616Z,12.70
2017-10-18T11:22:59.007Z,13.60
2017-10-18T11:25:26.393Z,14.00
2017-10-18T11:27:53.788Z,13.20
2017-10-18T11:30:21.207Z,13.17
2017-10-18T11:32:48.606Z,13.13
2017-10-18T11:35:15.990Z,12.90
2017-10-18T11:37:43.398Z,13.83
2017-10-18T11:40:10.790Z,12.27
2017-10-18T11:42:38.185Z,13.13
2017-10-18T11:45:05.597Z,12.73
2017-10-18T11:47:32.985Z,13.67
2017-10-18T11:50:00.382Z,13.30
2017-10-18T11:52:27.785Z,12.90
2017-10-18T11:54:55.181Z,12.80
2017-10-18T11:57:22.567Z,12.57
2017-10-18T11:59:49.973Z,11.97
2017-10-18T12:02:17.367Z,13.37
2017-10-18T12:04:44.758Z,12.57
2017-10-18T12:07:12.162Z,11.70
2017-10-18T12:09:39.558Z,11.77
2017-10-18T12:12:06.987Z,11.60
2017-10-18T12:14:34.361Z,11.40
2017-10-18T12:17:01.754Z,12.73
2017-10-18T12:19:29.154Z,12.47
2017-10-18T12:21:56.558Z,13.10
2017-10-18T12:24:23.950Z,13.77
2017-10-18T12:26:51.337Z,13.87
2017-10-18T12:29:18.743Z,13.07
2017-10-18T12:31:46.145Z,13.80
2017-10-18T12:34:13.527Z,12.80
2017-10-18T12:36:40.928Z,12.60
2017-10-18T12:39:08.320Z,12.80
2017-10-18T12:41:35.714Z,12.07
2017-10-18T12:44:03.109Z,13.13
2017-10-18T12:46:30.506Z,13.00
2017-10-18T12:48:57.902Z,12.97
2017-10-18T12:51:25.321Z,12.97
2017-10-18T12:53:52.706Z,13.03
2017-10-18T12:56:20.765Z,13.20
2017-10-18T12:58:48.173Z,13.03
2017-10-18T13:01:15.570Z,12.80
2017-10-18T13:03:42.963Z,12.50
2017-10-18T13:06:11.609Z,12.67
2017-10-18T13:08:39.006Z,12.50
2017-10-18T13:11:06.406Z,11.80
2017-10-18T13:13:33.806Z,12.33
2017-10-18T13:16:01.199Z,12.43
2017-10-18T13:18:28.601Z,11.90
2017-10-18T13:20:56.002Z,12.30
2017-10-18T13:23:23.389Z,12.27
2017-10-18T13:25:50.818Z,12.50
2017-10-18T13:28:18.214Z,12.13
2017-10-18T13:30:45.602Z,13.33
2017-10-18T13:33:13.009Z,12.80
2017-10-18T13:35:41.221Z,13.20
2017-10-18T13:38:08.610Z,13.27
2017-10-18T13:40:36.014Z,12.57
2017-10-18T13:43:03.410Z,13.60
2017-10-18T13:45:30.802Z,13.90
2017-10-18T13:47:58.207Z,15.27
2017-10-18T13:50:25.594Z,14.40
2017-10-18T13:52:52.990Z,13.90
2017-10-18T13:55:20.394Z,15.40
2017-10-18T13:57:47.790Z,14.37
2017-10-18T14:00:15.179Z,16.20
2017-10-18T14:02:42.587Z,15.73
2017-10-18T14:05:09.974Z,14.70
2017-10-18T14:07:37.415Z,15.60
2017-10-18T14:10:04.819Z,16.10
2017-10-18T14:12:32.217Z,15.80
2017-10-18T14:14:59.976Z,16.70
2017-10-18T14:17:27.425Z,15.90
2017-10-18T14:19:54.895Z,15.97
2017-10-18T14:22:22.323Z,14.70
2017-10-18T14:24:49.786Z,16.10
2017-10-18T14:27:17.217Z,15.50
2017-10-18T14:29:44.660Z,14.60
2017-10-18T14:32:12.063Z,13.60
2017-10-18T14:34:39.505Z,15.63
2017-10-18T14:37:08.131Z,15.90
2017-10-18T14:39:35.534Z,15.53
2017-10-18T14:42:03.070Z,15.50
2017-10-18T14:44:30.457Z,14.27
2017-10-18T14:46:57.863Z,14.60
2017-10-18T14:49:25.259Z,14.20
2017-10-18T14:51:54.345Z,13.30
2017-10-18T14:54:21.742Z,13.87
2017-10-18T14:56:49.141Z,13.70
2017-10-18T14:59:16.538Z,14.10
2017-10-18T15:01:43.946Z,15.13
2017-10-18T15:04:11.330Z,13.60
2017-10-18T15:06:38.717Z,14.50
2017-10-18T15:09:06.129Z,13.63
2017-10-18T15:11:33.522Z,12.60
2017-10-18T15:14:00.915Z,12.80
2017-10-18T15:16:28.317Z,12.20
2017-10-18T15:18:55.711Z,11.53
2017-10-18T15:21:23.101Z,12.10
2017-10-18T15:23:50.510Z,13.00
2017-10-18T15:26:17.908Z,12.70
2017-10-18T15:28:45.297Z,12.37
2017-10-18T15:31:12.697Z,13.10
2017-10-18T15:33:40.101Z,12.50
2017-10-18T15:36:07.486Z,13.10
2017-10-18T15:38:34.890Z,12.80
2017-10-18T15:41:02.290Z,13.60
2017-10-18T15:43:29.687Z,14.00
2017-10-18T15:45:57.086Z,13.73
2017-10-18T15:48:24.486Z,12.73
2017-10-18T15:50:51.878Z,12.83
2017-10-18T15:53:19.281Z,13.40
2017-10-18T15:55:46.678Z,14.20
2017-10-18T15:58:14.070Z,13.80
2017-10-18T16:00:41.491Z,14.43
2017-10-18T16:03:08.880Z,13.80
2017-10-18T16:05:36.278Z,13.60
2017-10-18T16:08:03.686Z,13.60
2017-10-18T16:10:31.073Z,13.30
2017-10-18T16:12:58.469Z,14.40
2017-10-18T16:15:25.876Z,14.73
2017-10-18T16:17:53.269Z,14.60
2017-10-18T16:20:20.663Z,14.53
2017-10-18T16:22:50.130Z,14.87
2017-10-18T16:25:17.518Z,13.67
2017-10-18T16:27:44.916Z,14.00
2017-10-18T16:30:12.316Z,13.93
2017-10-18T16:32:39.706Z,13.90
2017-10-18T16:35:07.097Z,14.30
2017-10-18T16:37:34.501Z,13.93
2017-10-18T16:40:01.894Z,12.77
2017-10-18T16:42:29.290Z,14.63
2017-10-18T16:44:56.686Z,15.20
2017-10-18T16:47:24.089Z,13.70
2017-10-18T16:49:51.474Z,13.70
2017-10-18T16:52:18.882Z,14.60
2017-10-18T16:54:46.278Z,13.57
2017-10-18T16:57:13.671Z,13.80
2017-10-18T16:59:41.078Z,14.10
2017-10-18T17:02:08.474Z,12.73
2017-10-18T17:04:35.861Z,13.10
2017-10-18T17:07:03.274Z,13.33
2017-10-18T17:09:30.661Z,14.10
2017-10-18T17:11:58.061Z,13.37
2017-10-18T17:14:25.462Z,14.00
2017-10-18T17:16:52.853Z,13.90
2017-10-18T17:19:20.246Z,15.03
2017-10-18T17:21:47.652Z,12.53
2017-10-18T17:24:15.052Z,12.40
2017-10-18T17:26:42.447Z,13.70
2017-10-18T17:29:09.854Z,13.93
2017-10-18T17:31:37.245Z,15.70
2017-10-18T17:34:04.642Z,15.10
2017-10-18T17:36:32.133Z,14.40
2017-10-18T17:38:59.506Z,14.63
2017-10-18T17:41:26.899Z,14.60
2017-10-18T17:43:54.307Z,15.20
2017-10-18T17:46:21.693Z,15.00
2017-10-18T17:48:49.099Z,15.03
2017-10-18T17:51:16.489Z,15.80
2017-10-18T17:53:43.885Z,16.10
2017-10-18T17:56:11.273Z,16.23
2017-10-18T17:58:38.674Z,14.90
2017-10-18T18:01:06.066Z,15.43
2017-10-18T18:03:36.867Z,14.90
2017-10-18T18:06:04.275Z,14.30
2017-10-18T18:08:31.671Z,13.80
2017-10-18T18:11:13.261Z,15.03
2017-10-18T18:13:40.664Z,15.33
2017-10-18T18:16:08.050Z,15.37
2017-10-18T18:18:35.470Z,14.80
2017-10-18T18:21:11.466Z,14.50
2017-10-18T18:23:38.880Z,15.87
2017-10-18T18:26:06.282Z,15.90
2017-10-18T18:28:33.673Z,15.03
2017-10-18T18:31:01.078Z,15.17
2017-10-18T18:33:28.474Z,14.60
2017-10-18T18:35:55.861Z,14.90
2017-10-18T18:38:27.103Z,15.40
2017-10-18T18:40:54.923Z,14.40
2017-10-18T18:43:22.509Z,15.63
2017-10-18T18:45:51.634Z,15.03
2017-10-18T18:48:19.404Z,17.10
2017-10-18T18:50:47.045Z,15.20
2017-10-18T18:53:14.659Z,15.20
2017-10-18T18:55:42.470Z,15.63
2017-10-18T18:58:09.908Z,16.00
2017-10-18T19:00:37.485Z,16.07
2017-10-18T19:03:05.110Z,15.63
2017-10-18T19:05:36.018Z,15.00
2017-10-18T19:08:03.426Z,15.50
2017-10-18T19:10:30.819Z,16.03
2017-10-18T19:12:58.254Z,16.30
2017-10-18T19:15:25.668Z,15.60
2017-10-18T19:17:53.052Z,15.40
2017-10-18T19:20:20.446Z,16.33
2017-10-18T19:22:47.894Z,15.80
2017-10-18T19:25:15.289Z,15.50
2017-10-18T19:27:42.677Z,15.10
2017-10-18T19:30:10.094Z,15.77
2017-10-18T19:32:37.488Z,15.40
2017-10-18T19:35:04.895Z,15.63
2017-10-18T19:37:32.321Z,15.07
2017-10-18T19:39:59.715Z,15.20
2017-10-18T19:42:27.102Z,16.60
2017-10-18T19:44:55.623Z,16.87
2017-10-18T19:47:23.019Z,17.00
2017-10-18T19:49:50.406Z,16.83
2017-10-18T19:52:17.817Z,15.30
2017-10-18T19:54:45.225Z,15.50
2017-10-18T19:57:12.629Z,16.17
2017-10-18T19:59:45.762Z,16.07
2017-10-18T20:02:13.150Z,17.30
2017-10-18T20:04:40.543Z,16.47
2017-10-18T20:07:07.966Z,16.50
2017-10-18T20:09:35.352Z,16.57
2017-10-18T20:12:02.738Z,17.07
2017-10-18T20:14:30.158Z,16.80
2017-10-18T20:16:57.561Z,17.20
2017-10-18T20:19:24.953Z,18.40
2017-10-18T20:21:52.365Z,17.60
2017-10-18T20:24:19.757Z,17.30
2017-10-18T20:26:47.155Z,17.03
2017-10-18T20:29:14.587Z,17.60
2017-10-18T20:31:41.970Z,17.27
2017-10-18T20:34:09.374Z,17.90
2017-10-18T20:36:36.774Z,17.90
2017-10-18T20:39:04.171Z,18.47
2017-10-18T20:41:40.105Z,18.80
2017-10-18T20:44:07.495Z,17.53
2017-10-18T20:46:34.886Z,18.53
2017-10-18T20:49:02.293Z,17.43
2017-10-18T20:51:29.682Z,18.13
2017-10-18T20:53:57.074Z,18.57
2017-10-18T20:56:24.473Z,17.20
2017-10-18T20:58:51.873Z,17.20
2017-10-18T21:01:19.262Z,18.10
2017-10-18T21:03:46.666Z,17.40
2017-10-18T21:06:14.065Z,18.10
2017-10-18T21:08:41.465Z,19.23
2017-10-18T21:11:08.870Z,18.50
2017-10-18T21:13:36.278Z,17.67
2017-10-18T21:16:03.661Z,18.00
2017-10-18T21:18:31.069Z,17.70
2017-10-18T21:20:58.453Z,19.43
2017-10-18T21:23:25.851Z,19.23
2017-10-18T21:25:53.262Z,18.07
2017-10-18T21:28:20.649Z,18.03
2017-10-18T21:30:48.050Z,18.50
2017-10-18T21:33:15.459Z,20.90
2017-10-18T21:35:42.850Z,20.10
2017-10-18T21:38:10.246Z,18.47
2017-10-18T21:40:37.659Z,19.07
2017-10-18T21:43:05.050Z,19.47
2017-10-18T21:45:32.446Z,20.30
2017-10-18T21:47:59.851Z,20.20
2017-10-18T21:50:27.247Z,18.27
2017-10-18T21:52:54.637Z,18.50
2017-10-18T21:55:22.041Z,19.17
2017-10-18T21:57:49.433Z,18.50
2017-10-18T22:00:16.830Z,19.80
2017-10-18T22:02:44.241Z,19.47
2017-10-18T22:05:11.634Z,18.70
2017-10-18T22:07:39.031Z,18.20
2017-10-18T22:10:06.438Z,19.33
2017-10-18T22:12:33.822Z,19.47
2017-10-18T22:15:01.222Z,20.00
2017-10-18T22:17:28.629Z,19.30
2017-10-18T22:19:56.026Z,20.27
2017-10-18T22:22:23.421Z,21.20
2017-10-18T22:24:50.826Z,19.67
2017-10-18T22:27:18.215Z,20.80
2017-10-18T22:29:45.605Z,19.90
2017-10-18T22:32:13.015Z,19.93
2017-10-18T22:34:40.411Z,19.83
2017-10-18T22:37:07.794Z,19.87
2017-10-18T22:39:35.195Z,19.73
2017-10-18T22:42:02.585Z,21.30
2017-10-18T22:44:29.982Z,20.33
2017-10-18T22:46:57.401Z,20.23
2017-10-18T22:49:24.790Z,20.63
2017-10-18T22:51:52.184Z,20.10
2017-10-18T22:54:19.581Z,20.57
2017-10-18T22:56:46.979Z,22.30
2017-10-18T22:59:14.371Z,21.50
2017-10-18T23:01:41.776Z,21.13
2017-10-18T23:04:09.165Z,21.60
2017-10-18T23:06:36.562Z,22.20
2017-10-18T23:09:03.977Z,22.23
2017-10-18T23:11:31.370Z,22.90
2017-10-18T23:13:58.778Z,22.27
2017-10-18T23:16:26.198Z,22.23
2017-10-18T23:18:53.608Z,22.40
2017-10-18T23:21:20.993Z,22.00
2017-10-18T23:23:48.409Z,22.37
2017-10-18T23:26:15.813Z,24.10
2017-10-18T23:28:43.214Z,21.80
2017-10-18T23:31:10.622Z,22.37
2017-10-18T23:33:38.019Z,22.40
2017-10-18T23:36:05.408Z,22.13
2017-10-18T23:38:32.814Z,23.20
2017-10-18T23:41:00.209Z,22.90
2017-10-18T23:43:27.606Z,22.40
2017-10-18T23:45:55.025Z,20.40
2017-10-18T23:48:22.413Z,22.57
2017-10-18T23:50:49.806Z,22.37
2017-10-18T23:53:17.218Z,22.30
2017-10-18T23:55:44.614Z,23.00
2017-10-18T23:58:12.006Z,23.27
